sensor_id;sensor_type;location;lat;lon;timestamp;P1;durP1;ratioP1;P2;durP2;ratioP2
55655;SDS011;41530;52.382;5.270;2022-12-10T00:01:06;7.40;;;4.72;;
55655;SDS011;41530;52.382;5.270;2022-12-10T00:03:34;6.90;;;4.68;;
55655;SDS011;41530;52.382;5.270;2022-12-10T00:06:02;6.68;;;4.82;;
55655;SDS011;41530;52.382;5.270;2022-12-10T00:08:30;7.20;;;4.90;;
55655;SDS011;41530;52.382;5.270;2022-12-10T00:10:57;7.28;;;5.22;;
55655;SDS011;41530;52.382;5.270;2022-12-10T00:13:23;7.18;;;4.47;;
55655;SDS011;41530;52.382;5.270;2022-12-10T00:15:50;6.65;;;4.78;;
55655;SDS011;41530;52.382;5.270;2022-12-10T00:18:17;6.63;;;4.75;;
55655;SDS011;41530;52.382;5.270;2022-12-10T00:20:43;8.25;;;4.97;;
55655;SDS011;41530;52.382;5.270;2022-12-10T00:23:10;7.93;;;4.63;;
55655;SDS011;41530;52.382;5.270;2022-12-10T00:25:37;6.28;;;4.50;;
55655;SDS011;41530;52.382;5.270;2022-12-10T00:28:04;6.55;;;4.47;;
55655;SDS011;41530;52.382;5.270;2022-12-10T00:30:31;6.97;;;4.65;;
55655;SDS011;41530;52.382;5.270;2022-12-10T00:33:00;7.45;;;4.53;;
55655;SDS011;41530;52.382;5.270;2022-12-10T00:35:27;7.22;;;4.78;;
55655;SDS011;41530;52.382;5.270;2022-12-10T00:37:53;9.82;;;4.90;;
55655;SDS011;41530;52.382;5.270;2022-12-10T00:40:21;7.28;;;4.78;;
55655;SDS011;41530;52.382;5.270;2022-12-10T00:42:48;6.88;;;4.38;;
55655;SDS011;41530;52.382;5.270;2022-12-10T00:45:15;7.00;;;4.70;;
55655;SDS011;41530;52.382;5.270;2022-12-10T00:47:43;5.30;;;4.32;;
55655;SDS011;41530;52.382;5.270;2022-12-10T00:50:10;6.25;;;4.40;;
55655;SDS011;41530;52.382;5.270;2022-12-10T00:52:37;6.20;;;4.43;;
55655;SDS011;41530;52.382;5.270;2022-12-10T00:55:03;7.03;;;4.60;;
55655;SDS011;41530;52.382;5.270;2022-12-10T00:57:31;5.43;;;4.50;;
55655;SDS011;41530;52.382;5.270;2022-12-10T00:59:57;6.10;;;4.25;;
55655;SDS011;41530;52.382;5.270;2022-12-10T01:02:24;6.07;;;4.38;;
55655;SDS011;41530;52.382;5.270;2022-12-10T01:04:54;5.88;;;4.25;;
55655;SDS011;41530;52.382;5.270;2022-12-10T01:07:20;5.90;;;4.40;;
55655;SDS011;41530;52.382;5.270;2022-12-10T01:09:47;6.68;;;4.40;;
55655;SDS011;41530;52.382;5.270;2022-12-10T01:12:14;5.30;;;4.20;;
55655;SDS011;41530;52.382;5.270;2022-12-10T01:14:41;6.75;;;4.47;;
55655;SDS011;41530;52.382;5.270;2022-12-10T01:17:08;6.20;;;4.30;;
55655;SDS011;41530;52.382;5.270;2022-12-10T01:19:35;5.43;;;4.20;;
55655;SDS011;41530;52.382;5.270;2022-12-10T01:22:02;7.20;;;4.53;;
55655;SDS011;41530;52.382;5.270;2022-12-10T01:24:30;5.97;;;4.25;;
55655;SDS011;41530;52.382;5.270;2022-12-10T01:26:57;5.47;;;3.95;;
55655;SDS011;41530;52.382;5.270;2022-12-10T01:29:24;9.73;;;5.10;;
55655;SDS011;41530;52.382;5.270;2022-12-10T01:31:51;6.18;;;4.10;;
55655;SDS011;41530;52.382;5.270;2022-12-10T01:34:19;6.13;;;4.20;;
55655;SDS011;41530;52.382;5.270;2022-12-10T01:36:48;6.85;;;4.70;;
55655;SDS011;41530;52.382;5.270;2022-12-10T01:39:18;7.15;;;4.65;;
55655;SDS011;41530;52.382;5.270;2022-12-10T01:41:47;5.63;;;4.38;;
55655;SDS011;41530;52.382;5.270;2022-12-10T01:46:44;6.97;;;4.75;;
55655;SDS011;41530;52.382;5.270;2022-12-10T01:49:13;8.07;;;4.80;;
55655;SDS011;41530;52.382;5.270;2022-12-10T01:51:43;7.63;;;4.93;;
55655;SDS011;41530;52.382;5.270;2022-12-10T01:54:18;8.55;;;5.00;;
55655;SDS011;41530;52.382;5.270;2022-12-10T01:56:50;7.68;;;4.95;;
55655;SDS011;41530;52.382;5.270;2022-12-10T01:59:24;8.43;;;4.72;;
55655;SDS011;41530;52.382;5.270;2022-12-10T02:01:58;8.65;;;5.45;;
55655;SDS011;41530;52.382;5.270;2022-12-10T02:10:39;7.82;;;5.18;;
55655;SDS011;41530;52.382;5.270;2022-12-10T02:13:31;7.20;;;5.03;;
55655;SDS011;41530;52.382;5.270;2022-12-10T02:18:41;9.07;;;5.43;;
55655;SDS011;41530;52.382;5.270;2022-12-10T02:21:15;8.68;;;5.60;;
55655;SDS011;41530;52.382;5.270;2022-12-10T02:23:46;9.13;;;5.53;;
55655;SDS011;41530;52.382;5.270;2022-12-10T02:26:20;10.38;;;5.38;;
55655;SDS011;41530;52.382;5.270;2022-12-10T02:29:01;8.95;;;5.85;;
55655;SDS011;41530;52.382;5.270;2022-12-10T02:32:29;9.95;;;6.00;;
55655;SDS011;41530;52.382;5.270;2022-12-10T02:34:40;10.43;;;6.22;;
55655;SDS011;41530;52.382;5.270;2022-12-10T02:37:15;9.52;;;6.18;;
55655;SDS011;41530;52.382;5.270;2022-12-10T02:39:48;9.23;;;6.10;;
55655;SDS011;41530;52.382;5.270;2022-12-10T02:42:17;8.55;;;5.63;;
55655;SDS011;41530;52.382;5.270;2022-12-10T02:44:47;8.25;;;5.80;;
55655;SDS011;41530;52.382;5.270;2022-12-10T02:47:16;10.02;;;6.13;;
55655;SDS011;41530;52.382;5.270;2022-12-10T02:49:49;8.98;;;5.38;;
55655;SDS011;41530;52.382;5.270;2022-12-10T02:52:19;9.13;;;5.47;;
55655;SDS011;41530;52.382;5.270;2022-12-10T02:54:47;9.38;;;5.93;;
55655;SDS011;41530;52.382;5.270;2022-12-10T03:02:31;8.13;;;5.45;;
55655;SDS011;41530;52.382;5.270;2022-12-10T03:05:12;9.60;;;5.57;;
55655;SDS011;41530;52.382;5.270;2022-12-10T03:07:50;10.23;;;6.07;;
55655;SDS011;41530;52.382;5.270;2022-12-10T03:10:42;8.80;;;5.97;;
55655;SDS011;41530;52.382;5.270;2022-12-10T03:13:38;8.68;;;5.70;;
55655;SDS011;41530;52.382;5.270;2022-12-10T03:16:28;10.68;;;6.47;;
55655;SDS011;41530;52.382;5.270;2022-12-10T03:19:00;10.65;;;6.03;;
55655;SDS011;41530;52.382;5.270;2022-12-10T03:21:31;11.18;;;6.35;;
55655;SDS011;41530;52.382;5.270;2022-12-10T03:24:01;7.60;;;5.43;;
55655;SDS011;41530;52.382;5.270;2022-12-10T03:26:29;11.77;;;6.70;;
55655;SDS011;41530;52.382;5.270;2022-12-10T03:28:59;10.18;;;6.72;;
55655;SDS011;41530;52.382;5.270;2022-12-10T03:31:30;11.95;;;6.63;;
55655;SDS011;41530;52.382;5.270;2022-12-10T03:34:00;10.95;;;7.20;;
55655;SDS011;41530;52.382;5.270;2022-12-10T03:36:28;9.95;;;6.45;;
55655;SDS011;41530;52.382;5.270;2022-12-10T03:38:56;11.98;;;6.60;;
55655;SDS011;41530;52.382;5.270;2022-12-10T03:41:24;9.80;;;6.30;;
55655;SDS011;41530;52.382;5.270;2022-12-10T03:43:52;10.55;;;6.70;;
55655;SDS011;41530;52.382;5.270;2022-12-10T03:46:20;10.23;;;6.90;;
55655;SDS011;41530;52.382;5.270;2022-12-10T03:48:49;11.50;;;7.18;;
55655;SDS011;41530;52.382;5.270;2022-12-10T03:51:17;10.95;;;6.35;;
55655;SDS011;41530;52.382;5.270;2022-12-10T03:53:45;10.70;;;6.57;;
55655;SDS011;41530;52.382;5.270;2022-12-10T03:56:12;9.82;;;6.20;;
55655;SDS011;41530;52.382;5.270;2022-12-10T03:58:39;12.80;;;6.60;;
55655;SDS011;41530;52.382;5.270;2022-12-10T04:01:06;12.48;;;6.95;;
55655;SDS011;41530;52.382;5.270;2022-12-10T04:03:34;11.63;;;7.07;;
55655;SDS011;41530;52.382;5.270;2022-12-10T04:06:03;12.45;;;6.75;;
55655;SDS011;41530;52.382;5.270;2022-12-10T04:08:31;13.70;;;7.45;;
55655;SDS011;41530;52.382;5.270;2022-12-10T04:11:06;12.27;;;6.65;;
55655;SDS011;41530;52.382;5.270;2022-12-10T04:13:35;11.43;;;6.68;;
55655;SDS011;41530;52.382;5.270;2022-12-10T04:16:21;11.82;;;6.25;;
55655;SDS011;41530;52.382;5.270;2022-12-10T04:18:59;9.80;;;5.85;;
55655;SDS011;41530;52.382;5.270;2022-12-10T04:21:31;11.30;;;6.95;;
55655;SDS011;41530;52.382;5.270;2022-12-10T04:24:20;11.07;;;6.80;;
55655;SDS011;41530;52.382;5.270;2022-12-10T04:29:54;10.52;;;6.22;;
55655;SDS011;41530;52.382;5.270;2022-12-10T04:32:23;10.07;;;6.13;;
55655;SDS011;41530;52.382;5.270;2022-12-10T04:34:50;9.57;;;6.30;;
55655;SDS011;41530;52.382;5.270;2022-12-10T04:37:17;12.27;;;6.63;;
55655;SDS011;41530;52.382;5.270;2022-12-10T04:39:44;9.40;;;5.85;;
55655;SDS011;41530;52.382;5.270;2022-12-10T04:42:11;11.25;;;6.40;;
55655;SDS011;41530;52.382;5.270;2022-12-10T04:44:38;12.00;;;6.05;;
55655;SDS011;41530;52.382;5.270;2022-12-10T04:47:05;10.00;;;6.10;;
55655;SDS011;41530;52.382;5.270;2022-12-10T04:49:33;10.38;;;6.30;;
55655;SDS011;41530;52.382;5.270;2022-12-10T04:52:01;9.43;;;6.40;;
55655;SDS011;41530;52.382;5.270;2022-12-10T04:54:29;9.85;;;5.93;;
55655;SDS011;41530;52.382;5.270;2022-12-10T04:57:03;9.85;;;5.97;;
55655;SDS011;41530;52.382;5.270;2022-12-10T04:59:30;10.38;;;6.47;;
55655;SDS011;41530;52.382;5.270;2022-12-10T05:01:57;10.27;;;6.55;;
55655;SDS011;41530;52.382;5.270;2022-12-10T05:04:23;12.25;;;7.00;;
55655;SDS011;41530;52.382;5.270;2022-12-10T05:06:51;11.15;;;6.10;;
55655;SDS011;41530;52.382;5.270;2022-12-10T05:09:17;11.60;;;6.55;;
55655;SDS011;41530;52.382;5.270;2022-12-10T05:11:44;10.02;;;6.18;;
55655;SDS011;41530;52.382;5.270;2022-12-10T05:14:11;10.65;;;6.63;;
55655;SDS011;41530;52.382;5.270;2022-12-10T05:16:41;9.65;;;6.05;;
55655;SDS011;41530;52.382;5.270;2022-12-10T05:19:08;10.40;;;6.45;;
55655;SDS011;41530;52.382;5.270;2022-12-10T05:21:35;10.85;;;6.38;;
55655;SDS011;41530;52.382;5.270;2022-12-10T05:24:21;12.32;;;6.85;;
55655;SDS011;41530;52.382;5.270;2022-12-10T05:26:47;10.93;;;6.78;;
55655;SDS011;41530;52.382;5.270;2022-12-10T05:29:17;11.90;;;7.07;;
55655;SDS011;41530;52.382;5.270;2022-12-10T05:31:44;11.18;;;6.85;;
55655;SDS011;41530;52.382;5.270;2022-12-10T05:34:12;11.05;;;6.43;;
55655;SDS011;41530;52.382;5.270;2022-12-10T05:36:39;11.70;;;7.18;;
55655;SDS011;41530;52.382;5.270;2022-12-10T05:39:06;12.25;;;6.90;;
55655;SDS011;41530;52.382;5.270;2022-12-10T05:41:37;10.35;;;6.60;;
55655;SDS011;41530;52.382;5.270;2022-12-10T05:44:05;12.65;;;7.55;;
55655;SDS011;41530;52.382;5.270;2022-12-10T05:46:34;11.57;;;7.18;;
55655;SDS011;41530;52.382;5.270;2022-12-10T05:49:02;13.38;;;8.02;;
55655;SDS011;41530;52.382;5.270;2022-12-10T05:51:32;11.82;;;6.70;;
55655;SDS011;41530;52.382;5.270;2022-12-10T05:54:01;13.32;;;7.25;;
55655;SDS011;41530;52.382;5.270;2022-12-10T05:56:29;11.18;;;6.43;;
55655;SDS011;41530;52.382;5.270;2022-12-10T05:59:00;10.65;;;6.70;;
55655;SDS011;41530;52.382;5.270;2022-12-10T06:01:29;11.23;;;6.40;;
55655;SDS011;41530;52.382;5.270;2022-12-10T06:04:02;12.07;;;6.78;;
55655;SDS011;41530;52.382;5.270;2022-12-10T06:06:32;10.02;;;6.20;;
55655;SDS011;41530;52.382;5.270;2022-12-10T06:09:01;10.65;;;6.00;;
55655;SDS011;41530;52.382;5.270;2022-12-10T06:11:29;12.88;;;6.90;;
55655;SDS011;41530;52.382;5.270;2022-12-10T06:13:56;9.55;;;6.50;;
55655;SDS011;41530;52.382;5.270;2022-12-10T06:16:25;9.93;;;6.43;;
55655;SDS011;41530;52.382;5.270;2022-12-10T06:18:53;11.70;;;7.30;;
55655;SDS011;41530;52.382;5.270;2022-12-10T06:21:20;10.95;;;7.13;;
55655;SDS011;41530;52.382;5.270;2022-12-10T06:23:47;11.27;;;6.85;;
55655;SDS011;41530;52.382;5.270;2022-12-10T06:26:18;11.68;;;7.13;;
55655;SDS011;41530;52.382;5.270;2022-12-10T06:28:47;10.65;;;6.90;;
55655;SDS011;41530;52.382;5.270;2022-12-10T06:31:15;10.93;;;6.80;;
55655;SDS011;41530;52.382;5.270;2022-12-10T06:33:42;10.00;;;6.60;;
55655;SDS011;41530;52.382;5.270;2022-12-10T06:36:10;10.63;;;6.88;;
55655;SDS011;41530;52.382;5.270;2022-12-10T06:38:38;10.15;;;6.45;;
55655;SDS011;41530;52.382;5.270;2022-12-10T06:41:06;11.13;;;6.90;;
55655;SDS011;41530;52.382;5.270;2022-12-10T06:43:34;9.95;;;6.68;;
55655;SDS011;41530;52.382;5.270;2022-12-10T06:46:07;9.65;;;6.20;;
55655;SDS011;41530;52.382;5.270;2022-12-10T06:48:36;9.50;;;6.07;;
55655;SDS011;41530;52.382;5.270;2022-12-10T06:51:03;9.95;;;6.03;;
55655;SDS011;41530;52.382;5.270;2022-12-10T06:53:31;10.35;;;6.25;;
55655;SDS011;41530;52.382;5.270;2022-12-10T06:55:59;8.77;;;5.95;;
55655;SDS011;41530;52.382;5.270;2022-12-10T06:58:27;9.70;;;6.32;;
55655;SDS011;41530;52.382;5.270;2022-12-10T07:01:01;9.00;;;5.95;;
55655;SDS011;41530;52.382;5.270;2022-12-10T07:03:50;8.52;;;5.95;;
55655;SDS011;41530;52.382;5.270;2022-12-10T07:06:19;9.32;;;5.88;;
55655;SDS011;41530;52.382;5.270;2022-12-10T07:08:46;9.05;;;5.93;;
55655;SDS011;41530;52.382;5.270;2022-12-10T07:11:14;8.40;;;5.78;;
55655;SDS011;41530;52.382;5.270;2022-12-10T07:13:43;8.27;;;5.90;;
55655;SDS011;41530;52.382;5.270;2022-12-10T07:18:50;9.38;;;5.95;;
55655;SDS011;41530;52.382;5.270;2022-12-10T07:21:31;8.68;;;5.47;;
55655;SDS011;41530;52.382;5.270;2022-12-10T07:24:01;8.27;;;5.55;;
55655;SDS011;41530;52.382;5.270;2022-12-10T07:26:30;8.90;;;5.90;;
55655;SDS011;41530;52.382;5.270;2022-12-10T07:28:59;9.77;;;6.03;;
55655;SDS011;41530;52.382;5.270;2022-12-10T07:31:29;9.23;;;6.03;;
55655;SDS011;41530;52.382;5.270;2022-12-10T07:33:57;8.48;;;5.60;;
55655;SDS011;41530;52.382;5.270;2022-12-10T07:36:24;8.05;;;5.55;;
55655;SDS011;41530;52.382;5.270;2022-12-10T07:38:52;9.25;;;6.05;;
55655;SDS011;41530;52.382;5.270;2022-12-10T07:41:20;9.10;;;5.65;;
55655;SDS011;41530;52.382;5.270;2022-12-10T07:43:47;8.15;;;5.90;;
55655;SDS011;41530;52.382;5.270;2022-12-10T07:46:19;7.72;;;5.25;;
55655;SDS011;41530;52.382;5.270;2022-12-10T07:48:50;7.88;;;5.50;;
55655;SDS011;41530;52.382;5.270;2022-12-10T07:51:18;8.85;;;5.75;;
55655;SDS011;41530;52.382;5.270;2022-12-10T07:53:47;8.40;;;5.75;;
55655;SDS011;41530;52.382;5.270;2022-12-10T07:56:16;8.82;;;5.72;;
55655;SDS011;41530;52.382;5.270;2022-12-10T07:58:44;9.45;;;5.97;;
55655;SDS011;41530;52.382;5.270;2022-12-10T08:01:12;7.80;;;5.28;;
55655;SDS011;41530;52.382;5.270;2022-12-10T08:03:41;8.25;;;5.53;;
55655;SDS011;41530;52.382;5.270;2022-12-10T08:06:09;7.70;;;5.15;;
55655;SDS011;41530;52.382;5.270;2022-12-10T08:08:40;7.85;;;5.68;;
55655;SDS011;41530;52.382;5.270;2022-12-10T08:11:08;7.28;;;4.95;;
55655;SDS011;41530;52.382;5.270;2022-12-10T08:13:36;7.57;;;5.07;;
55655;SDS011;41530;52.382;5.270;2022-12-10T08:16:04;7.93;;;5.05;;
55655;SDS011;41530;52.382;5.270;2022-12-10T08:18:37;7.05;;;5.32;;
55655;SDS011;41530;52.382;5.270;2022-12-10T08:21:10;7.10;;;4.90;;
55655;SDS011;41530;52.382;5.270;2022-12-10T08:23:38;6.97;;;4.60;;
55655;SDS011;41530;52.382;5.270;2022-12-10T08:26:05;7.47;;;4.78;;
55655;SDS011;41530;52.382;5.270;2022-12-10T08:28:34;5.93;;;4.53;;
55655;SDS011;41530;52.382;5.270;2022-12-10T08:31:03;6.70;;;4.38;;
55655;SDS011;41530;52.382;5.270;2022-12-10T08:33:34;6.65;;;4.75;;
55655;SDS011;41530;52.382;5.270;2022-12-10T08:36:03;7.93;;;4.82;;
55655;SDS011;41530;52.382;5.270;2022-12-10T08:38:31;7.68;;;4.70;;
55655;SDS011;41530;52.382;5.270;2022-12-10T08:40:58;6.82;;;4.80;;
55655;SDS011;41530;52.382;5.270;2022-12-10T08:43:26;7.13;;;4.60;;
55655;SDS011;41530;52.382;5.270;2022-12-10T08:45:52;6.72;;;4.68;;
55655;SDS011;41530;52.382;5.270;2022-12-10T08:48:20;5.70;;;4.28;;
55655;SDS011;41530;52.382;5.270;2022-12-10T08:50:47;6.75;;;4.35;;
55655;SDS011;41530;52.382;5.270;2022-12-10T08:53:13;5.85;;;4.32;;
55655;SDS011;41530;52.382;5.270;2022-12-10T08:55:40;5.97;;;4.43;;
55655;SDS011;41530;52.382;5.270;2022-12-10T08:58:14;5.95;;;4.07;;
55655;SDS011;41530;52.382;5.270;2022-12-10T09:00:40;6.43;;;3.92;;
55655;SDS011;41530;52.382;5.270;2022-12-10T09:03:08;5.25;;;4.10;;
55655;SDS011;41530;52.382;5.270;2022-12-10T09:05:35;6.28;;;4.10;;
55655;SDS011;41530;52.382;5.270;2022-12-10T09:08:01;5.65;;;4.28;;
55655;SDS011;41530;52.382;5.270;2022-12-10T09:10:28;5.43;;;4.00;;
55655;SDS011;41530;52.382;5.270;2022-12-10T09:12:55;6.80;;;4.57;;
55655;SDS011;41530;52.382;5.270;2022-12-10T09:15:28;6.07;;;3.92;;
55655;SDS011;41530;52.382;5.270;2022-12-10T09:17:55;6.35;;;3.90;;
55655;SDS011;41530;52.382;5.270;2022-12-10T09:20:21;5.95;;;3.80;;
55655;SDS011;41530;52.382;5.270;2022-12-10T09:22:49;5.80;;;4.03;;
55655;SDS011;41530;52.382;5.270;2022-12-10T09:25:15;6.20;;;4.43;;
55655;SDS011;41530;52.382;5.270;2022-12-10T09:27:46;5.32;;;3.90;;
55655;SDS011;41530;52.382;5.270;2022-12-10T09:30:12;5.07;;;3.70;;
55655;SDS011;41530;52.382;5.270;2022-12-10T09:32:39;5.32;;;3.75;;
55655;SDS011;41530;52.382;5.270;2022-12-10T09:35:07;6.00;;;4.07;;
55655;SDS011;41530;52.382;5.270;2022-12-10T09:37:34;5.88;;;4.10;;
55655;SDS011;41530;52.382;5.270;2022-12-10T09:40:02;5.10;;;3.70;;
55655;SDS011;41530;52.382;5.270;2022-12-10T09:42:42;4.38;;;3.75;;
55655;SDS011;41530;52.382;5.270;2022-12-10T09:50:31;5.10;;;4.00;;
55655;SDS011;41530;52.382;5.270;2022-12-10T09:53:08;5.88;;;3.80;;
55655;SDS011;41530;52.382;5.270;2022-12-10T09:55:43;5.35;;;3.92;;
55655;SDS011;41530;52.382;5.270;2022-12-10T09:58:16;5.43;;;3.60;;
55655;SDS011;41530;52.382;5.270;2022-12-10T10:00:57;4.78;;;3.63;;
55655;SDS011;41530;52.382;5.270;2022-12-10T10:03:26;7.38;;;4.50;;
55655;SDS011;41530;52.382;5.270;2022-12-10T10:06:01;11.23;;;4.47;;
55655;SDS011;41530;52.382;5.270;2022-12-10T10:08:37;6.20;;;4.60;;
55655;SDS011;41530;52.382;5.270;2022-12-10T10:11:24;6.75;;;4.70;;
55655;SDS011;41530;52.382;5.270;2022-12-10T10:13:55;7.22;;;4.35;;
55655;SDS011;41530;52.382;5.270;2022-12-10T10:16:34;6.80;;;4.85;;
55655;SDS011;41530;52.382;5.270;2022-12-10T10:19:12;7.07;;;4.03;;
55655;SDS011;41530;52.382;5.270;2022-12-10T10:21:46;6.72;;;4.55;;
55655;SDS011;41530;52.382;5.270;2022-12-10T10:24:17;8.20;;;4.97;;
55655;SDS011;41530;52.382;5.270;2022-12-10T10:26:46;17.27;;;6.13;;
55655;SDS011;41530;52.382;5.270;2022-12-10T10:29:13;17.60;;;6.03;;
55655;SDS011;41530;52.382;5.270;2022-12-10T10:31:43;12.48;;;5.18;;
55655;SDS011;41530;52.382;5.270;2022-12-10T10:36:44;14.80;;;5.78;;
55655;SDS011;41530;52.382;5.270;2022-12-10T10:41:45;13.60;;;5.22;;
55655;SDS011;41530;52.382;5.270;2022-12-10T10:44:24;16.90;;;5.70;;
55655;SDS011;41530;52.382;5.270;2022-12-10T10:46:54;13.30;;;5.53;;
55655;SDS011;41530;52.382;5.270;2022-12-10T10:49:31;16.25;;;6.45;;
55655;SDS011;41530;52.382;5.270;2022-12-10T10:52:01;15.75;;;5.90;;
55655;SDS011;41530;52.382;5.270;2022-12-10T10:57:01;15.35;;;6.05;;
55655;SDS011;41530;52.382;5.270;2022-12-10T10:59:36;17.55;;;5.80;;
55655;SDS011;41530;52.382;5.270;2022-12-10T11:04:52;13.13;;;6.13;;
55655;SDS011;41530;52.382;5.270;2022-12-10T11:09:56;14.55;;;5.60;;
55655;SDS011;41530;52.382;5.270;2022-12-10T11:12:34;12.27;;;5.82;;
55655;SDS011;41530;52.382;5.270;2022-12-10T11:15:01;15.25;;;5.63;;
55655;SDS011;41530;52.382;5.270;2022-12-10T11:17:40;12.45;;;5.45;;
55655;SDS011;41530;52.382;5.270;2022-12-10T11:20:18;14.32;;;5.05;;
55655;SDS011;41530;52.382;5.270;2022-12-10T11:22:49;10.30;;;5.20;;
55655;SDS011;41530;52.382;5.270;2022-12-10T11:28:10;13.90;;;6.03;;
55655;SDS011;41530;52.382;5.270;2022-12-10T11:30:58;14.70;;;5.75;;
55655;SDS011;41530;52.382;5.270;2022-12-10T11:34:03;11.43;;;5.63;;
55655;SDS011;41530;52.382;5.270;2022-12-10T11:42:21;10.00;;;5.43;;
55655;SDS011;41530;52.382;5.270;2022-12-10T11:48:20;11.15;;;5.45;;
55655;SDS011;41530;52.382;5.270;2022-12-10T11:51:11;11.23;;;5.67;;
55655;SDS011;41530;52.382;5.270;2022-12-10T12:04:27;12.63;;;5.90;;
55655;SDS011;41530;52.382;5.270;2022-12-10T12:09:57;10.82;;;5.25;;
55655;SDS011;41530;52.382;5.270;2022-12-10T12:12:41;8.63;;;4.60;;
55655;SDS011;41530;52.382;5.270;2022-12-10T12:15:22;10.45;;;5.20;;
55655;SDS011;41530;52.382;5.270;2022-12-10T12:17:57;12.82;;;5.55;;
55655;SDS011;41530;52.382;5.270;2022-12-10T12:20:29;10.65;;;5.13;;
55655;SDS011;41530;52.382;5.270;2022-12-10T12:23:02;9.95;;;5.95;;
55655;SDS011;41530;52.382;5.270;2022-12-10T12:25:38;12.18;;;5.60;;
55655;SDS011;41530;52.382;5.270;2022-12-10T12:28:11;9.88;;;5.35;;
55655;SDS011;41530;52.382;5.270;2022-12-10T12:30:46;10.45;;;5.90;;
55655;SDS011;41530;52.382;5.270;2022-12-10T12:36:05;9.48;;;5.38;;
55655;SDS011;41530;52.382;5.270;2022-12-10T12:38:51;7.25;;;4.70;;
55655;SDS011;41530;52.382;5.270;2022-12-10T12:41:29;11.20;;;5.72;;
55655;SDS011;41530;52.382;5.270;2022-12-10T12:44:04;10.57;;;5.63;;
55655;SDS011;41530;52.382;5.270;2022-12-10T12:46:40;10.32;;;5.60;;
55655;SDS011;41530;52.382;5.270;2022-12-10T12:49:12;10.82;;;5.43;;
55655;SDS011;41530;52.382;5.270;2022-12-10T12:51:48;9.93;;;5.55;;
55655;SDS011;41530;52.382;5.270;2022-12-10T12:54:16;10.63;;;5.45;;
55655;SDS011;41530;52.382;5.270;2022-12-10T13:02:25;10.52;;;5.45;;
55655;SDS011;41530;52.382;5.270;2022-12-10T13:05:04;8.95;;;5.15;;
55655;SDS011;41530;52.382;5.270;2022-12-10T13:07:38;9.68;;;5.40;;
55655;SDS011;41530;52.382;5.270;2022-12-10T13:12:32;11.05;;;5.80;;
55655;SDS011;41530;52.382;5.270;2022-12-10T13:18:19;11.23;;;5.82;;
55655;SDS011;41530;52.382;5.270;2022-12-10T13:23:53;9.25;;;5.45;;
55655;SDS011;41530;52.382;5.270;2022-12-10T13:26:31;9.95;;;5.55;;
55655;SDS011;41530;52.382;5.270;2022-12-10T13:29:12;11.05;;;6.25;;
55655;SDS011;41530;52.382;5.270;2022-12-10T13:32:01;10.70;;;5.80;;
55655;SDS011;41530;52.382;5.270;2022-12-10T13:34:32;10.25;;;5.82;;
55655;SDS011;41530;52.382;5.270;2022-12-10T13:47:23;9.25;;;5.78;;
55655;SDS011;41530;52.382;5.270;2022-12-10T13:49:56;11.23;;;6.07;;
55655;SDS011;41530;52.382;5.270;2022-12-10T13:52:39;10.93;;;6.15;;
55655;SDS011;41530;52.382;5.270;2022-12-10T13:57:56;12.25;;;5.90;;
55655;SDS011;41530;52.382;5.270;2022-12-10T14:06:32;10.48;;;6.25;;
55655;SDS011;41530;52.382;5.270;2022-12-10T14:11:47;11.40;;;6.60;;
55655;SDS011;41530;52.382;5.270;2022-12-10T14:14:22;13.05;;;6.47;;
55655;SDS011;41530;52.382;5.270;2022-12-10T14:16:55;9.43;;;5.50;;
55655;SDS011;41530;52.382;5.270;2022-12-10T14:19:25;11.23;;;6.35;;
55655;SDS011;41530;52.382;5.270;2022-12-10T14:21:54;10.65;;;6.32;;
55655;SDS011;41530;52.382;5.270;2022-12-10T14:24:26;9.88;;;6.05;;
55655;SDS011;41530;52.382;5.270;2022-12-10T14:27:03;11.63;;;6.25;;
55655;SDS011;41530;52.382;5.270;2022-12-10T14:29:46;11.02;;;6.20;;
55655;SDS011;41530;52.382;5.270;2022-12-10T14:32:15;10.85;;;5.82;;
55655;SDS011;41530;52.382;5.270;2022-12-10T14:34:47;10.55;;;6.65;;
55655;SDS011;41530;52.382;5.270;2022-12-10T14:37:18;11.85;;;6.60;;
55655;SDS011;41530;52.382;5.270;2022-12-10T14:39:50;11.18;;;6.68;;
55655;SDS011;41530;52.382;5.270;2022-12-10T14:42:17;11.15;;;6.72;;
55655;SDS011;41530;52.382;5.270;2022-12-10T14:44:45;11.65;;;6.10;;
55655;SDS011;41530;52.382;5.270;2022-12-10T14:47:20;11.90;;;6.47;;
55655;SDS011;41530;52.382;5.270;2022-12-10T14:49:47;11.80;;;6.63;;
55655;SDS011;41530;52.382;5.270;2022-12-10T14:52:19;12.15;;;6.65;;
55655;SDS011;41530;52.382;5.270;2022-12-10T14:54:47;10.45;;;6.32;;
55655;SDS011;41530;52.382;5.270;2022-12-10T15:00:35;10.45;;;6.25;;
55655;SDS011;41530;52.382;5.270;2022-12-10T15:02:48;9.32;;;5.75;;
55655;SDS011;41530;52.382;5.270;2022-12-10T15:05:23;10.25;;;6.22;;
55655;SDS011;41530;52.382;5.270;2022-12-10T15:08:02;11.65;;;6.32;;
55655;SDS011;41530;52.382;5.270;2022-12-10T15:10:38;9.82;;;5.55;;
55655;SDS011;41530;52.382;5.270;2022-12-10T15:13:08;13.05;;;5.78;;
55655;SDS011;41530;52.382;5.270;2022-12-10T15:15:47;11.65;;;5.80;;
55655;SDS011;41530;52.382;5.270;2022-12-10T15:18:16;10.70;;;6.05;;
55655;SDS011;41530;52.382;5.270;2022-12-10T15:20:46;10.10;;;5.95;;
55655;SDS011;41530;52.382;5.270;2022-12-10T15:28:28;9.15;;;5.90;;
55655;SDS011;41530;52.382;5.270;2022-12-10T15:33:49;9.90;;;5.77;;
55655;SDS011;41530;52.382;5.270;2022-12-10T15:44:05;10.25;;;6.43;;
55655;SDS011;41530;52.382;5.270;2022-12-10T15:46:47;10.80;;;5.97;;
55655;SDS011;41530;52.382;5.270;2022-12-10T15:49:15;10.52;;;6.03;;
55655;SDS011;41530;52.382;5.270;2022-12-10T15:51:42;9.70;;;6.15;;
55655;SDS011;41530;52.382;5.270;2022-12-10T15:54:30;9.55;;;5.88;;
55655;SDS011;41530;52.382;5.270;2022-12-10T15:57:00;9.35;;;6.07;;
55655;SDS011;41530;52.382;5.270;2022-12-10T15:59:49;10.18;;;6.07;;
55655;SDS011;41530;52.382;5.270;2022-12-10T16:07:36;11.20;;;6.57;;
55655;SDS011;41530;52.382;5.270;2022-12-10T16:10:03;10.50;;;6.20;;
55655;SDS011;41530;52.382;5.270;2022-12-10T16:12:31;11.32;;;6.50;;
55655;SDS011;41530;52.382;5.270;2022-12-10T16:15:06;9.75;;;5.80;;
55655;SDS011;41530;52.382;5.270;2022-12-10T16:17:38;9.18;;;5.65;;
55655;SDS011;41530;52.382;5.270;2022-12-10T16:22:55;9.48;;;6.00;;
55655;SDS011;41530;52.382;5.270;2022-12-10T16:25:23;9.95;;;5.88;;
55655;SDS011;41530;52.382;5.270;2022-12-10T16:27:51;11.60;;;6.18;;
55655;SDS011;41530;52.382;5.270;2022-12-10T16:30:23;10.38;;;6.55;;
55655;SDS011;41530;52.382;5.270;2022-12-10T16:32:51;12.38;;;6.60;;
55655;SDS011;41530;52.382;5.270;2022-12-10T16:35:18;11.85;;;6.65;;
55655;SDS011;41530;52.382;5.270;2022-12-10T16:37:45;10.25;;;6.00;;
55655;SDS011;41530;52.382;5.270;2022-12-10T16:40:15;10.88;;;6.93;;
55655;SDS011;41530;52.382;5.270;2022-12-10T16:42:42;10.65;;;6.82;;
55655;SDS011;41530;52.382;5.270;2022-12-10T16:45:17;9.52;;;5.63;;
55655;SDS011;41530;52.382;5.270;2022-12-10T16:47:46;11.60;;;5.90;;
55655;SDS011;41530;52.382;5.270;2022-12-10T16:50:14;11.63;;;6.50;;
55655;SDS011;41530;52.382;5.270;2022-12-10T16:52:41;9.82;;;5.85;;
55655;SDS011;41530;52.382;5.270;2022-12-10T16:55:12;11.02;;;6.35;;
55655;SDS011;41530;52.382;5.270;2022-12-10T16:57:41;11.27;;;6.20;;
55655;SDS011;41530;52.382;5.270;2022-12-10T17:00:09;11.70;;;6.70;;
55655;SDS011;41530;52.382;5.270;2022-12-10T17:02:37;11.88;;;5.82;;
55655;SDS011;41530;52.382;5.270;2022-12-10T17:05:08;11.80;;;6.88;;
55655;SDS011;41530;52.382;5.270;2022-12-10T17:07:39;13.15;;;6.97;;
55655;SDS011;41530;52.382;5.270;2022-12-10T17:10:06;13.60;;;7.10;;
55655;SDS011;41530;52.382;5.270;2022-12-10T17:12:34;10.93;;;6.90;;
55655;SDS011;41530;52.382;5.270;2022-12-10T17:15:02;11.73;;;6.60;;